Time;durP1;ratioP1;P1;durP2;ratioP2;P2;SDS_P1;SDS_P2;PMS_P1;PMS_P2;Temp;Humidity;BMP_temperature;BMP_pressure;BME280_temperature;BME280_humidity;BME280_pressure;Samples;Min_cycle;Max_cycle;Signal;HPM_P1;HPM_P2
2023/10/14 00:01:31;;;;;;;11.20;6.20;;;;;;;14.74;83.29;99429.91;130564;1256;114780;-75
2023/10/14 00:04:33;;;;;;;12.30;6.80;;;;;;;14.65;83.26;99425.16;130092;1254;114933;-75
2023/10/14 00:07:35;;;;;;;16.10;7.70;;;;;;;14.55;83.36;99418.39;130375;1253;114805;-75
2023/10/14 00:10:39;;;;;;;20.30;8.30;;;;;;;14.47;83.61;99413.48;130168;1253;115024;-74
2023/10/14 00:13:48;;;;;;;15.70;7.50;;;;;;;14.39;83.80;99410.02;130347;1256;114803;-75
2023/10/14 00:16:51;;;;;;;12.80;7.30;;;;;;;14.29;83.76;99405.59;130346;1253;114847;-74
2023/10/14 00:19:55;;;;;;;14.40;8.40;;;;;;;14.19;84.12;99403.83;130302;1261;114693;-75
2023/10/14 00:22:58;;;;;;;20.00;8.60;;;;;;;14.10;84.30;99400.44;130644;1256;128937;-75
2023/10/14 00:26:00;;;;;;;15.30;9.10;;;;;;;14.01;84.40;99397.54;130592;1254;115455;-75
2023/10/14 00:32:17;;;;;;;20.80;9.00;;;;;;;13.83;84.67;99379.17;130296;1262;115151;-76
2023/10/14 00:35:20;;;;;;;20.80;9.20;;;;;;;13.75;84.81;99374.59;130597;1257;114742;-76
2023/10/14 00:38:23;;;;;;;17.80;8.40;;;;;;;13.67;85.07;99375.73;130615;1273;114821;-74
2023/10/14 00:41:27;;;;;;;12.10;8.00;;;;;;;13.60;85.25;99374.13;130403;1256;114703;-74
2023/10/14 00:44:29;;;;;;;17.50;8.70;;;;;;;13.53;85.39;99371.08;130412;1254;115372;-75
2023/10/14 00:47:31;;;;;;;12.30;7.80;;;;;;;13.46;85.66;99365.69;130326;1272;114831;-76
2023/10/14 00:50:33;;;;;;;15.00;7.70;;;;;;;13.40;85.73;99363.27;130263;1257;114748;-75
2023/10/14 00:53:38;;;;;;;17.10;8.40;;;;;;;13.33;85.80;99364.11;130370;1256;114790;-75
2023/10/14 00:56:40;;;;;;;13.00;7.60;;;;;;;13.28;86.16;99362.33;130614;1254;128975;-75
2023/10/14 00:59:43;;;;;;;16.60;7.00;;;;;;;13.24;86.29;99351.39;130345;1257;114730;-76
2023/10/14 01:02:47;;;;;;;10.60;5.70;;;;;;;13.21;86.47;99346.02;130514;1256;114750;-75
2023/10/14 01:05:49;;;;;;;14.90;6.80;;;;;;;13.24;86.69;99332.59;130345;1253;114726;-76
2023/10/14 01:08:53;;;;;;;17.00;5.80;;;;;;;13.32;87.11;99321.50;130417;1256;114731;-76
2023/10/14 01:11:55;;;;;;;11.10;5.90;;;;;;;13.46;87.22;99314.61;130362;1254;114855;-75
2023/10/14 01:14:59;;;;;;;11.70;6.20;;;;;;;13.62;87.05;99304.94;130361;1256;114712;-75
2023/10/14 01:18:01;;;;;;;11.50;6.00;;;;;;;13.76;87.10;99298.77;130329;1254;115413;-75
2023/10/14 01:21:07;;;;;;;12.90;5.80;;;;;;;13.91;87.03;99288.31;130331;1268;114790;-76
2023/10/14 01:24:16;;;;;;;20.50;6.10;;;;;;;14.03;86.86;99281.58;130554;1254;114740;-75
2023/10/14 01:27:21;;;;;;;12.30;5.70;;;;;;;14.15;86.38;99277.96;130373;1276;114834;-75
2023/10/14 01:30:26;;;;;;;12.30;5.60;;;;;;;14.25;86.10;99267.44;130055;1257;128266;-75
2023/10/14 01:33:35;;;;;;;;;;;;;;;14.35;85.95;99257.85;130221;1257;114764;-76
2023/10/14 01:36:38;;;;;;;15.80;5.80;;;;;;;14.41;85.73;99250.81;130605;1257;114734;-75
2023/10/14 01:39:46;;;;;;;13.00;4.70;;;;;;;14.49;85.55;99246.27;130480;1257;114735;-76
2023/10/14 01:42:49;;;;;;;14.20;5.20;;;;;;;14.56;85.51;99245.26;130677;1256;114728;-77
2023/10/14 01:49:01;;;;;;;12.50;4.90;;;;;;;14.72;84.98;99234.30;130513;1253;114738;-76
2023/10/14 01:52:07;;;;;;;16.40;5.60;;;;;;;14.77;84.88;99230.30;130662;1252;114657;-77
2023/10/14 01:55:10;;;;;;;12.10;5.70;;;;;;;14.82;84.61;99224.30;130776;1256;114785;-76
2023/10/14 01:58:21;;;;;;;13.90;5.70;;;;;;;14.86;84.34;99224.86;130742;1256;114812;-76
2023/10/14 02:01:23;;;;;;;16.90;4.90;;;;;;;14.88;84.22;99223.27;130249;1258;128052;-76
2023/10/14 02:04:26;;;;;;;9.90;4.90;;;;;;;14.88;83.96;99220.74;130626;1256;115183;-75
2023/10/14 02:07:30;;;;;;;11.90;5.40;;;;;;;14.88;83.73;99230.80;130603;1257;115179;-76
2023/10/14 02:10:35;;;;;;;12.50;5.30;;;;;;;14.85;83.89;99228.33;130662;1254;115367;-76
2023/10/14 02:13:37;;;;;;;17.90;6.10;;;;;;;14.82;83.80;99228.98;130270;1257;114961;-76
2023/10/14 02:16:44;;;;;;;16.30;5.40;;;;;;;14.79;83.63;99219.00;130502;1269;114912;-76
2023/10/14 02:19:49;;;;;;;14.50;5.40;;;;;;;14.77;83.65;99208.42;130645;1254;115345;-76
2023/10/14 02:22:52;;;;;;;14.60;5.40;;;;;;;14.74;83.39;99201.79;130186;1257;114851;-76
2023/10/14 02:25:57;;;;;;;12.00;5.90;;;;;;;14.71;83.27;99201.30;130550;1254;115263;-76
2023/10/14 02:29:00;;;;;;;15.90;5.80;;;;;;;14.69;83.31;99193.41;130461;1277;114854;-76
2023/10/14 02:32:02;;;;;;;9.90;5.50;;;;;;;14.65;83.22;99194.78;130527;1257;114841;-75
2023/10/14 02:35:04;;;;;;;11.70;6.00;;;;;;;14.59;83.39;99201.60;130577;1253;115328;-75
2023/10/14 02:38:07;;;;;;;15.00;6.40;;;;;;;14.52;83.65;99204.99;130265;1277;115158;-76
2023/10/14 02:41:10;;;;;;;16.00;5.90;;;;;;;14.45;83.58;99196.80;130296;1255;114766;-76
2023/10/14 02:47:14;;;;;;;10.10;6.00;;;;;;;14.26;83.78;99192.23;130349;1254;114712;-76
2023/10/14 02:50:23;;;;;;;15.90;7.20;;;;;;;14.17;83.96;99184.20;130324;1253;114642;-76
2023/10/14 02:53:28;;;;;;;10.90;5.30;;;;;;;14.07;83.95;99175.87;130675;1254;128842;-76
2023/10/14 02:56:55;;;;;;;13.70;5.90;;;;;;;13.97;83.95;99169.30;130700;1256;114794;-75
2023/10/14 02:59:56;;;;;;;18.10;7.00;;;;;;;13.90;84.37;99159.98;130461;1256;114785;-75
2023/10/14 03:03:12;;;;;;;20.10;6.40;;;;;;;13.87;84.35;99161.85;130388;1254;114834;-76
2023/10/14 03:06:14;;;;;;;12.70;6.30;;;;;;;13.84;84.63;99160.66;130050;1276;114907;-75
2023/10/14 03:09:17;;;;;;;13.10;6.50;;;;;;;13.81;84.77;99164.14;130442;1276;114708;-74
2023/10/14 03:12:21;;;;;;;12.50;5.80;;;;;;;13.80;84.90;99159.27;130467;1269;114837;-76
2023/10/14 03:15:23;;;;;;;12.70;7.10;;;;;;;13.78;85.03;99160.42;130551;1256;114766;-74
2023/10/14 03:18:37;;;;;;;12.40;6.30;;;;;;;13.78;85.19;99158.84;130599;1257;114729;-72
2023/10/14 03:21:53;;;;;;;17.00;6.30;;;;;;;13.79;85.35;99156.43;130240;1254;114872;-73
2023/10/14 03:25:07;;;;;;;17.50;7.20;;;;;;;13.79;85.88;99147.07;130426;1276;114731;-75
2023/10/14 03:28:13;;;;;;;15.20;6.60;;;;;;;13.80;85.81;99138.89;128135;1254;3211204;-75
2023/10/14 03:31:17;;;;;;;9.70;6.50;;;;;;;13.82;86.15;99129.60;130110;1262;115260;-72
2023/10/14 03:34:21;;;;;;;12.20;7.00;;;;;;;13.89;86.52;99131.57;130359;1254;114984;-73
2023/10/14 03:37:26;;;;;;;15.20;7.00;;;;;;;14.00;86.70;99138.02;130384;1272;114782;-73
2023/10/14 03:46:59;;;;;;;13.10;6.60;;;;;;;14.01;86.35;99167.05;130389;1257;114810;-73
2023/10/14 03:50:01;;;;;;;12.80;6.90;;;;;;;13.96;86.29;99162.54;130155;1254;114871;-74
2023/10/14 03:53:05;;;;;;;12.90;6.20;;;;;;;13.91;86.23;99161.91;130370;1254;115281;-72
2023/10/14 03:56:07;;;;;;;18.90;7.20;;;;;;;13.85;86.14;99160.09;130430;1254;115125;-73
2023/10/14 03:59:12;;;;;;;15.50;7.30;;;;;;;13.77;86.19;99156.75;130433;1256;115229;-72
2023/10/14 04:02:24;;;;;;;11.20;6.10;;;;;;;13.70;86.34;99155.15;130338;1256;115187;-73
2023/10/14 04:05:27;;;;;;;16.70;8.00;;;;;;;13.65;86.49;99153.41;130368;1259;114735;-73
2023/10/14 04:08:33;;;;;;;17.10;7.00;;;;;;;13.62;86.91;99147.73;130730;1256;115602;-74
2023/10/14 04:11:38;;;;;;;14.20;7.50;;;;;;;13.64;87.26;99147.91;130467;1276;114792;-77
2023/10/14 04:14:41;;;;;;;15.50;7.20;;;;;;;13.69;87.37;99144.63;130727;1256;128556;-72
2023/10/14 04:17:48;;;;;;;15.20;6.90;;;;;;;13.76;87.66;99133.48;130417;1256;114702;-73
2023/10/14 04:21:02;;;;;;;15.50;7.60;;;;;;;13.86;87.88;99127.52;130345;1256;114790;-72
2023/10/14 04:24:28;;;;;;;13.10;6.70;;;;;;;13.94;87.90;99112.45;130746;1256;114784;-83
2023/10/14 04:27:35;;;;;;;12.90;7.90;;;;;;;14.05;87.91;99104.56;130671;1256;114790;-72
2023/10/14 04:30:42;;;;;;;14.50;7.10;;;;;;;14.12;87.63;99099.84;130364;1254;127660;-74
2023/10/14 04:33:44;;;;;;;17.30;7.40;;;;;;;14.19;87.74;99091.41;130437;1259;116686;-72
2023/10/14 04:36:55;;;;;;;15.90;7.50;;;;;;;14.25;87.43;99087.61;130431;1254;114857;-73
2023/10/14 04:40:15;;;;;;;21.40;7.60;;;;;;;14.32;87.55;99083.66;130589;1256;114813;-73
2023/10/14 04:46:32;;;;;;;16.50;7.20;;;;;;;14.45;87.51;99084.92;130578;1276;114812;-74
2023/10/14 04:49:37;;;;;;;15.20;7.20;;;;;;;14.51;87.29;99087.56;130148;1277;115288;-73
2023/10/14 04:52:48;;;;;;;10.80;6.30;;;;;;;14.59;87.24;99084.44;130312;1253;115427;-71
2023/10/14 04:55:51;;;;;;;12.50;6.70;;;;;;;14.67;86.94;99092.54;130252;1254;114723;-71
2023/10/14 04:58:53;;;;;;;16.50;7.00;;;;;;;14.73;86.88;99091.88;130376;1259;115165;-73
2023/10/14 05:01:55;;;;;;;12.80;6.60;;;;;;;14.77;86.71;99088.13;130233;1259;114818;-71
2023/10/14 05:04:59;;;;;;;19.00;6.80;;;;;;;14.81;86.40;99081.64;130286;1259;114799;-72
2023/10/14 05:08:04;;;;;;;16.30;6.40;;;;;;;14.85;86.05;99083.67;130306;1259;115246;-74
2023/10/14 05:11:12;;;;;;;13.90;6.80;;;;;;;14.89;85.96;99080.04;129964;1262;114918;-71
2023/10/14 05:14:14;;;;;;;11.70;5.20;;;;;;;14.96;85.78;99084.50;130123;1259;114726;-78
2023/10/14 05:17:17;;;;;;;11.30;6.30;;;;;;;15.05;85.44;99089.29;130287;1259;114738;-74
2023/10/14 05:20:48;;;;;;;14.00;6.00;;;;;;;15.15;85.44;99089.30;130412;1272;114803;-72
2023/10/14 05:23:42;;;;;;;10.10;5.70;;;;;;;15.28;85.01;99098.23;130569;1254;128957;-75
2023/10/14 05:26:45;;;;;;;10.10;5.70;;;;;;;15.40;84.99;99096.52;130246;1253;114752;-79
2023/10/14 05:29:51;;;;;;;13.50;5.20;;;;;;;15.51;84.49;99094.59;130293;1258;114886;-74
2023/10/14 05:32:53;;;;;;;20.00;5.70;;;;;;;15.62;84.12;99091.10;130186;1259;115293;-74
2023/10/14 05:35:57;;;;;;;7.70;4.80;;;;;;;15.74;83.87;99095.46;130497;1258;114799;-76
2023/10/14 05:39:02;;;;;;;11.80;5.80;;;;;;;15.85;83.42;99092.10;130243;1262;114751;-81
2023/10/14 05:42:14;;;;;;;14.20;5.50;;;;;;;15.98;82.96;99096.33;130336;1277;115184;-73
2023/10/14 05:45:17;;;;;;;11.70;5.00;;;;;;;16.12;82.95;99097.09;130129;1258;114727;-84
2023/10/14 05:48:30;;;;;;;11.10;4.70;;;;;;;16.24;82.65;99098.43;130359;1277;114783;-82
2023/10/14 05:51:39;;;;;;;12.80;5.00;;;;;;;16.40;82.34;99101.11;130284;1269;114824;-83
2023/10/14 05:54:45;;;;;;;16.00;5.10;;;;;;;16.55;81.89;99103.20;130359;1263;128676;-74
2023/10/14 05:58:02;;;;;;;16.20;5.90;;;;;;;16.71;81.73;99114.30;130291;1269;115177;-84
2023/10/14 06:01:13;;;;;;;12.80;5.60;;;;;;;16.87;81.20;99117.52;130333;1268;114730;-71
2023/10/14 06:04:17;;;;;;;9.50;5.00;;;;;;;17.03;80.85;99112.63;130555;1258;114734;-72
2023/10/14 06:07:23;;;;;;;10.40;5.20;;;;;;;17.15;80.53;99117.05;130278;1254;114742;-73
2023/10/14 06:10:29;;;;;;;18.40;5.30;;;;;;;17.24;80.12;99117.63;130617;1258;128740;-71
2023/10/14 06:13:32;;;;;;;15.20;5.20;;;;;;;17.33;79.78;99123.04;130045;1270;115167;-73
2023/10/14 06:16:35;;;;;;;10.10;4.90;;;;;;;17.41;79.52;99127.17;130596;1258;114716;-72
2023/10/14 06:19:37;;;;;;;11.70;5.30;;;;;;;17.47;79.49;99129.30;130298;1259;114824;-71
2023/10/14 06:22:41;;;;;;;8.10;5.30;;;;;;;17.52;79.31;99139.65;130226;1253;114761;-76
2023/10/14 06:25:43;;;;;;;10.10;5.50;;;;;;;17.55;79.01;99143.19;130440;1258;114749;-71
2023/10/14 06:28:48;;;;;;;14.20;5.00;;;;;;;17.57;78.87;99152.50;130367;1259;115366;-73
2023/10/14 06:31:50;;;;;;;;;;;;;;;17.59;78.64;99148.73;130343;1259;114808;-82
2023/10/14 06:34:59;;;;;;;10.90;4.90;;;;;;;17.60;78.13;99154.03;130710;1259;115133;-80
2023/10/14 06:38:04;;;;;;;11.70;4.50;;;;;;;17.64;78.02;99156.58;130320;1259;115192;-74
2023/10/14 06:41:11;;;;;;;11.70;5.30;;;;;;;17.70;77.95;99146.34;130201;1277;114726;-70
2023/10/14 06:44:15;;;;;;;12.30;4.60;;;;;;;17.77;77.76;99142.48;130213;1254;127662;-70
2023/10/14 06:47:18;;;;;;;11.80;5.30;;;;;;;17.81;77.48;99139.34;130188;1254;114858;-71
2023/10/14 06:50:23;;;;;;;8.80;5.00;;;;;;;17.86;77.14;99141.58;130248;1259;115220;-71
2023/10/14 06:53:29;;;;;;;12.90;6.00;;;;;;;17.89;76.45;99145.02;130362;1259;115094;-72
2023/10/14 06:56:33;;;;;;;10.20;4.60;;;;;;;17.92;75.96;99145.13;130145;1262;114738;-71
2023/10/14 06:59:37;;;;;;;13.10;5.00;;;;;;;17.98;76.02;99143.52;130137;1259;127999;-71
2023/10/14 07:02:40;;;;;;;14.10;6.10;;;;;;;18.02;75.73;99147.13;130272;1259;115226;-73
2023/10/14 07:05:48;;;;;;;10.80;4.70;;;;;;;18.06;75.42;99144.19;130119;1260;114801;-70
2023/10/14 07:08:51;;;;;;;12.60;4.50;;;;;;;18.10;75.15;99138.69;130193;1259;114796;-72
2023/10/14 07:11:55;;;;;;;9.70;5.00;;;;;;;18.13;74.23;99134.40;130141;1260;114800;-72
2023/10/14 07:14:58;;;;;;;12.70;5.60;;;;;;;18.16;74.64;99136.81;130445;1259;127668;-71
2023/10/14 07:18:01;;;;;;;6.70;4.80;;;;;;;18.18;74.09;99133.06;130405;1257;114742;-73
2023/10/14 07:21:08;;;;;;;12.20;6.10;;;;;;;18.19;73.95;99132.00;130417;1254;114712;-72
2023/10/14 07:24:14;;;;;;;15.60;4.80;;;;;;;18.23;73.77;99128.00;130334;1276;114866;-72
2023/10/14 07:27:17;;;;;;;12.70;5.80;;;;;;;18.29;73.77;99134.33;130228;1268;114834;-71
2023/10/14 07:30:26;;;;;;;12.50;4.80;;;;;;;18.34;73.77;99137.73;130349;1257;114783;-71
2023/10/14 07:33:29;;;;;;;9.30;4.70;;;;;;;18.40;73.50;99136.79;130253;1260;114619;-71
2023/10/14 07:36:31;;;;;;;11.10;4.70;;;;;;;18.47;73.35;99132.45;130430;1260;114739;-72
2023/10/14 07:39:33;;;;;;;7.20;4.20;;;;;;;18.57;72.71;99123.00;130178;1273;114770;-71
2023/10/14 07:42:36;;;;;;;7.90;4.90;;;;;;;18.71;72.66;99115.41;130253;1259;115082;-72
2023/10/14 07:45:43;;;;;;;8.50;4.70;;;;;;;18.86;72.65;99122.14;130397;1276;114645;-71
2023/10/14 07:48:45;;;;;;;13.50;5.10;;;;;;;19.04;72.24;99121.77;130347;1256;127992;-71
2023/10/14 07:51:52;;;;;;;9.50;4.50;;;;;;;19.21;71.80;99114.61;130293;1259;115221;-73
2023/10/14 07:54:55;;;;;;;8.60;4.70;;;;;;;19.41;71.76;99112.16;130267;1268;114819;-71
2023/10/14 07:58:00;;;;;;;10.10;5.10;;;;;;;19.59;71.15;99109.71;130298;1260;114696;-82
2023/10/14 08:01:09;;;;;;;9.40;5.30;;;;;;;19.77;71.17;99107.68;130371;1256;114869;-72
2023/10/14 08:04:14;;;;;;;9.50;5.70;;;;;;;20.03;71.31;99103.45;130114;1262;128739;-71
2023/10/14 08:07:16;;;;;;;8.50;5.00;;;;;;;20.33;71.08;99109.23;130228;1259;115420;-73
2023/10/14 08:10:18;;;;;;;10.20;4.90;;;;;;;20.60;70.62;99102.54;130330;1254;115147;-72
2023/10/14 08:13:23;;;;;;;10.70;4.50;;;;;;;20.77;70.03;99103.94;130245;1259;114798;-72
2023/10/14 08:16:25;;;;;;;9.60;5.50;;;;;;;20.89;69.64;99101.85;130166;1253;115299;-72
2023/10/14 08:19:31;;;;;;;13.90;5.10;;;;;;;21.03;69.29;99102.80;130196;1259;114749;-72
2023/10/14 08:22:33;;;;;;;11.00;5.50;;;;;;;21.17;69.26;99101.42;129952;1262;129026;-71
2023/10/14 08:25:41;;;;;;;9.70;5.30;;;;;;;21.24;68.63;99102.22;130091;1268;115253;-71
2023/10/14 08:28:44;;;;;;;12.60;5.80;;;;;;;21.33;68.39;99102.86;130311;1259;114661;-72
2023/10/14 08:31:51;;;;;;;16.20;6.10;;;;;;;21.43;68.07;99102.31;130363;1259;114774;-73
2023/10/14 08:34:54;;;;;;;8.30;4.40;;;;;;;21.54;67.23;99108.46;130269;1260;114643;-72
2023/10/14 08:37:57;;;;;;;14.40;5.00;;;;;;;21.68;66.72;99107.61;130166;1259;115169;-74
2023/10/14 08:41:03;;;;;;;13.50;5.00;;;;;;;21.78;66.36;99103.07;130109;1277;114860;-72
2023/10/14 08:44:08;;;;;;;12.30;5.00;;;;;;;21.86;65.97;99101.94;130160;1254;116653;-73
2023/10/14 08:47:14;;;;;;;9.40;4.20;;;;;;;21.92;64.93;99103.67;130181;1259;114751;-71
2023/10/14 08:50:29;;;;;;;9.80;4.80;;;;;;;21.98;65.02;99106.57;130193;1253;114710;-71
2023/10/14 08:53:40;;;;;;;10.10;5.00;;;;;;;22.06;64.54;99107.45;130271;1267;127962;-72
2023/10/14 08:56:43;;;;;;;12.10;4.60;;;;;;;22.11;64.33;99117.19;130094;1263;115375;-72
2023/10/14 08:59:46;;;;;;;9.00;4.70;;;;;;;22.16;64.23;99116.45;130152;1255;114696;-72
2023/10/14 09:02:50;;;;;;;10.30;5.20;;;;;;;22.20;63.61;99113.83;130122;1259;115276;-72
2023/10/14 09:05:52;;;;;;;12.70;5.00;;;;;;;22.22;63.14;99112.83;130100;1261;114794;-71
2023/10/14 09:08:55;;;;;;;9.90;4.80;;;;;;;22.25;62.88;99116.89;130150;1259;114805;-71
2023/10/14 09:12:07;;;;;;;9.00;5.50;;;;;;;22.26;62.37;99117.83;130225;1259;114799;-71
2023/10/14 09:15:09;;;;;;;11.90;4.70;;;;;;;22.24;62.39;99112.61;130406;1254;115224;-71
2023/10/14 09:18:17;;;;;;;9.90;4.70;;;;;;;22.21;62.12;99111.02;130330;1266;114825;-72
2023/10/14 09:21:22;;;;;;;15.60;5.60;;;;;;;22.14;61.86;99115.61;130485;1256;114736;-72
2023/10/14 09:24:26;;;;;;;10.90;5.10;;;;;;;22.07;61.45;99115.77;130012;1260;114719;-72
2023/10/14 09:27:31;;;;;;;9.50;5.10;;;;;;;22.02;61.85;99121.13;130218;1276;127774;-72
2023/10/14 09:30:36;;;;;;;;;;;;;;;22.04;61.40;99121.50;130390;1256;114722;-72
2023/10/14 09:33:43;;;;;;;8.80;4.70;;;;;;;22.11;61.63;99126.80;130402;1256;114750;-72
2023/10/14 09:36:45;;;;;;;10.80;5.00;;;;;;;22.27;61.63;99131.59;130344;1259;114846;-71
2023/10/14 09:39:49;;;;;;;10.70;4.80;;;;;;;22.48;61.51;99125.86;130169;1257;114963;-73
2023/10/14 09:42:53;;;;;;;11.20;5.10;;;;;;;22.67;61.23;99123.96;130023;1274;115109;-73
2023/10/14 09:45:56;;;;;;;16.00;5.50;;;;;;;22.84;61.22;99126.84;129987;1260;115413;-73
2023/10/14 09:48:59;;;;;;;13.60;5.30;;;;;;;23.02;60.76;99123.09;130401;1259;114795;-77
2023/10/14 09:52:02;;;;;;;13.00;5.50;;;;;;;23.24;60.85;99119.70;130161;1259;115350;-77
2023/10/14 09:55:09;;;;;;;7.60;4.70;;;;;;;23.48;60.74;99118.59;130597;1266;114717;-77
2023/10/14 09:58:18;;;;;;;9.20;5.40;;;;;;;23.69;60.57;99116.98;130327;1260;129280;-76
2023/10/14 10:01:20;;;;;;;8.50;4.90;;;;;;;23.83;60.15;99120.91;130413;1276;115250;-76
2023/10/14 10:04:27;;;;;;;8.90;4.50;;;;;;;23.96;60.06;99115.95;130219;1259;114774;-77
2023/10/14 10:07:47;;;;;;;12.50;5.10;;;;;;;24.10;59.63;99112.11;130663;1276;114790;-78
2023/10/14 10:10:51;;;;;;;7.40;4.50;;;;;;;24.23;59.03;99105.09;130833;1257;114705;-76
2023/10/14 10:13:53;;;;;;;12.70;5.70;;;;;;;24.39;59.00;99106.21;130248;1260;114710;-76
2023/10/14 10:16:57;;;;;;;11.70;5.10;;;;;;;24.59;58.91;99107.88;130399;1260;114824;-76
2023/10/14 10:20:16;;;;;;;9.00;4.70;;;;;;;24.84;58.55;99106.54;130281;1259;114916;-77
2023/10/14 10:23:19;;;;;;;10.40;5.20;;;;;;;25.12;57.92;99107.05;130251;1259;114788;-75
2023/10/14 10:26:23;;;;;;;12.80;5.10;;;;;;;25.27;57.05;99114.59;130349;1270;114824;-76
2023/10/14 10:29:27;;;;;;;9.10;5.50;;;;;;;25.30;57.06;99114.00;130492;1257;120216;-69
2023/10/14 10:32:35;;;;;;;12.60;5.00;;;;;;;25.20;56.39;99111.79;130348;1257;114741;-67
2023/10/14 10:35:59;;;;;;;7.00;4.30;;;;;;;25.06;56.02;99114.17;130203;1276;114742;-69
2023/10/14 10:39:19;;;;;;;12.40;5.70;;;;;;;24.86;56.09;99110.10;130108;1263;114884;-66
2023/10/14 10:42:25;;;;;;;8.20;5.00;;;;;;;24.67;56.08;99114.69;129886;1268;115273;-66
2023/10/14 10:45:32;;;;;;;9.80;5.00;;;;;;;24.53;56.09;99121.27;130370;1270;120469;-68
2023/10/14 10:48:39;;;;;;;7.20;5.00;;;;;;;24.35;56.10;99128.29;130098;1261;114840;-67
2023/10/14 10:52:12;;;;;;;8.50;5.10;;;;;;;24.13;55.99;99130.11;130403;1276;114730;-67
2023/10/14 10:55:15;;;;;;;8.90;4.80;;;;;;;23.87;56.23;99134.04;130381;1266;114699;-67
2023/10/14 10:58:20;;;;;;;10.30;5.10;;;;;;;23.70;56.29;99149.10;130372;1260;114779;-64
2023/10/14 11:01:23;;;;;;;15.00;5.50;;;;;;;23.51;56.29;99179.13;130310;1259;128641;-65
2023/10/14 11:04:25;;;;;;;11.90;5.40;;;;;;;23.25;56.05;99194.96;130150;1276;115093;-65
2023/10/14 11:07:27;;;;;;;8.30;4.70;;;;;;;23.01;56.34;99203.27;130411;1260;115229;-68
2023/10/14 11:10:33;;;;;;;9.60;5.30;;;;;;;22.81;56.80;99220.95;130359;1267;115234;-68
2023/10/14 11:13:39;;;;;;;12.70;5.10;;;;;;;22.61;57.13;99223.68;129888;1254;114732;-68
2023/10/14 11:16:44;;;;;;;12.30;5.10;;;;;;;22.40;57.04;99235.34;130277;1265;114905;-68
2023/10/14 11:19:47;;;;;;;9.10;5.50;;;;;;;22.16;57.57;99242.84;129946;1276;127081;-69
2023/10/14 11:22:49;;;;;;;7.60;4.80;;;;;;;21.93;57.87;99249.42;130249;1276;114775;-70
2023/10/14 11:25:54;;;;;;;12.30;5.60;;;;;;;21.71;58.44;99251.60;130156;1273;115164;-69
2023/10/14 11:28:59;;;;;;;7.10;4.40;;;;;;;21.52;58.97;99257.30;130213;1270;114753;-70
2023/10/14 11:32:02;;;;;;;7.00;4.20;;;;;;;21.35;59.52;99271.52;130003;1254;115072;-71
2023/10/14 11:35:08;;;;;;;7.40;4.20;;;;;;;21.16;60.02;99282.70;130085;1270;114837;-70
2023/10/14 11:38:13;;;;;;;7.60;4.00;;;;;;;20.96;60.44;99293.70;129993;1263;115198;-68
2023/10/14 11:41:17;;;;;;;10.60;3.80;;;;;;;20.78;60.92;99302.55;130014;1260;114854;-70
2023/10/14 11:44:20;;;;;;;7.70;3.60;;;;;;;20.61;61.62;99316.45;130469;1260;115186;-68
2023/10/14 11:47:28;;;;;;;5.30;3.20;;;;;;;20.43;62.43;99318.69;130374;1276;114670;-68
2023/10/14 11:50:32;;;;;;;6.70;2.40;;;;;;;20.21;63.19;99335.55;130477;1276;127819;-68
2023/10/14 11:53:38;;;;;;;5.20;2.70;;;;;;;19.99;63.88;99339.95;130362;1270;114809;-67
2023/10/14 11:56:41;;;;;;;3.50;2.50;;;;;;;19.77;64.42;99343.90;130272;1269;114818;-71
2023/10/14 11:59:44;;;;;;;2.80;2.50;;;;;;;19.56;64.81;99350.24;130511;1256;114736;-69
2023/10/14 12:02:47;;;;;;;3.20;2.50;;;;;;;19.38;65.37;99361.97;130423;1264;114757;-71
2023/10/14 12:05:51;;;;;;;2.80;2.00;;;;;;;19.19;66.22;99361.40;130506;1258;114731;-76
2023/10/14 12:08:53;;;;;;;2.90;2.00;;;;;;;19.02;66.72;99369.21;130274;1260;115290;-72
2023/10/14 12:11:55;;;;;;;5.40;2.30;;;;;;;18.87;67.26;99390.73;130217;1259;114741;-71
2023/10/14 12:14:58;;;;;;;4.50;1.80;;;;;;;18.74;68.03;99399.81;130547;1254;114702;-69
2023/10/14 12:18:01;;;;;;;3.50;2.00;;;;;;;18.60;68.77;99399.02;130014;1263;115397;-70
2023/10/14 12:21:04;;;;;;;1.80;1.70;;;;;;;18.47;69.61;99416.54;130391;1256;114728;-70
2023/10/14 12:24:09;;;;;;;1.70;1.30;;;;;;;18.29;70.11;99432.84;130248;1270;114847;-68
2023/10/14 12:27:14;;;;;;;4.20;0.90;;;;;;;18.07;70.52;99434.10;130392;1276;115169;-69
2023/10/14 12:30:39;;;;;;;3.20;0.90;;;;;;;17.80;70.37;99445.78;130159;1255;114869;-70
2023/10/14 12:33:41;;;;;;;3.50;0.80;;;;;;;17.51;70.32;99451.76;130269;1266;116107;-73
2023/10/14 12:36:45;;;;;;;0.80;0.50;;;;;;;17.26;70.31;99465.20;130220;1272;114782;-68
2023/10/14 12:40:49;;;;;;;1.20;1.10;;;;;;;17.07;70.69;99473.32;130194;1270;115260;-70
2023/10/14 12:43:32;;;;;;;3.70;0.90;;;;;;;16.86;71.01;99479.02;129655;1268;115241;-69
2023/10/14 12:46:40;;;;;;;1.90;1.00;;;;;;;16.68;71.34;99493.71;129666;1257;114865;-74
2023/10/14 12:49:42;;;;;;;2.30;1.00;;;;;;;16.57;71.85;99489.27;129604;1281;114827;-68
2023/10/14 12:52:49;;;;;;;1.80;1.60;;;;;;;16.47;71.81;99482.62;129756;1264;114852;-69
2023/10/14 12:55:52;;;;;;;0.90;0.60;;;;;;;16.37;72.16;99491.37;129834;1264;127535;-69
2023/10/14 12:58:56;;;;;;;1.90;1.00;;;;;;;16.31;72.33;99502.67;129827;1259;114939;-72
2023/10/14 13:01:59;;;;;;;6.90;1.50;;;;;;;16.28;72.63;99495.95;130229;1263;114728;-69
2023/10/14 13:05:03;;;;;;;4.20;1.60;;;;;;;16.24;72.81;99493.91;130469;1276;114821;-71
2023/10/14 13:08:05;;;;;;;2.10;1.00;;;;;;;16.20;72.99;99500.43;130383;1258;114764;-71
2023/10/14 13:11:07;;;;;;;4.40;0.90;;;;;;;16.15;73.13;99506.96;130307;1254;115083;-70
2023/10/14 13:14:11;;;;;;;1.80;1.30;;;;;;;16.06;72.83;99514.02;130358;1260;114762;-69
2023/10/14 13:17:13;;;;;;;1.20;0.70;;;;;;;15.89;72.67;99520.31;130364;1268;115221;-71
2023/10/14 13:20:20;;;;;;;2.10;1.10;;;;;;;15.74;73.01;99518.52;130420;1257;115462;-70
2023/10/14 13:23:25;;;;;;;1.70;1.00;;;;;;;15.61;73.44;99521.20;130312;1261;114955;-70
2023/10/14 13:26:31;;;;;;;1.00;0.80;;;;;;;15.53;73.70;99524.04;130707;1257;115396;-69
2023/10/14 13:29:35;;;;;;;2.90;1.20;;;;;;;15.51;74.27;99527.04;130364;1255;129324;-71
2023/10/14 13:32:37;;;;;;;3.30;1.10;;;;;;;15.49;74.38;99530.98;130344;1266;115071;-68
2023/10/14 13:35:42;;;;;;;2.90;1.40;;;;;;;15.48;74.83;99535.32;130399;1276;114859;-69
2023/10/14 13:38:44;;;;;;;;;;;;;;;15.46;75.13;99534.46;130446;1258;114808;-69
2023/10/14 13:41:49;;;;;;;4.20;1.50;;;;;;;15.45;75.36;99534.73;130494;1257;114734;-71
2023/10/14 13:44:51;;;;;;;;;;;;;;;15.43;75.24;99534.19;130136;1264;128129;-73
2023/10/14 13:47:53;;;;;;;5.40;1.30;;;;;;;15.40;75.61;99540.89;130546;1254;114796;-68
2023/10/14 13:50:55;;;;;;;4.70;1.10;;;;;;;15.35;75.70;99542.56;130502;1276;115192;-67
2023/10/14 13:53:58;;;;;;;1.60;1.10;;;;;;;15.29;75.94;99538.89;130107;1255;114786;-70
2023/10/14 13:57:01;;;;;;;1.70;1.30;;;;;;;15.26;76.05;99533.19;130546;1257;115137;-71
2023/10/14 14:00:07;;;;;;;2.70;1.50;;;;;;;15.20;76.01;99531.55;130528;1254;114717;-69
2023/10/14 14:03:11;;;;;;;4.40;1.40;;;;;;;15.15;76.38;99535.55;130427;1257;128216;-69
2023/10/14 14:06:13;;;;;;;3.30;1.00;;;;;;;15.12;76.80;99538.08;130341;1259;115226;-68
2023/10/14 14:09:21;;;;;;;4.20;1.30;;;;;;;15.09;76.92;99534.91;130343;1254;115238;-69
2023/10/14 14:12:23;;;;;;;3.30;1.40;;;;;;;15.09;77.22;99540.02;130456;1257;114830;-69
2023/10/14 14:15:27;;;;;;;3.80;1.20;;;;;;;15.09;77.51;99540.90;130428;1261;115319;-68
2023/10/14 14:18:29;;;;;;;4.10;1.30;;;;;;;15.11;77.66;99543.97;130417;1257;115241;-71
2023/10/14 14:21:32;;;;;;;3.70;1.20;;;;;;;15.12;77.84;99549.23;130431;1254;114767;-70
2023/10/14 14:24:34;;;;;;;5.50;1.40;;;;;;;15.13;77.96;99561.45;130513;1257;114780;-67
2023/10/14 14:27:36;;;;;;;4.00;1.40;;;;;;;15.10;78.04;99571.77;130500;1257;114845;-71